sensor_id;sensor_type;location;lat;lon;timestamp;pressure;altitude;pressure_sealevel;temperature;humidity
76124;BME280;65173;48.066;20.976;2023-08-12T00:02:07;101079.16;;;15.32;100.00
76124;BME280;65173;48.066;20.976;2023-08-12T00:05:11;101077.72;;;15.35;100.00
76124;BME280;65173;48.066;20.976;2023-08-12T00:08:13;101074.97;;;15.22;100.00
76124;BME280;65173;48.066;20.976;2023-08-12T00:11:16;101069.44;;;15.19;100.00
76124;BME280;65173;48.066;20.976;2023-08-12T00:14:18;101071.50;;;15.13;100.00
76124;BME280;65173;48.066;20.976;2023-08-12T00:17:21;101071.03;;;15.20;100.00
76124;BME280;65173;48.066;20.976;2023-08-12T00:20:23;101067.31;;;15.04;100.00
76124;BME280;65173;48.066;20.976;2023-08-12T00:23:26;101053.88;;;15.04;100.00
76124;BME280;65173;48.066;20.976;2023-08-12T00:26:29;101057.94;;;15.10;100.00
76124;BME280;65173;48.066;20.976;2023-08-12T00:29:31;101052.78;;;15.05;100.00
76124;BME280;65173;48.066;20.976;2023-08-12T00:32:34;101058.47;;;15.03;100.00
76124;BME280;65173;48.066;20.976;2023-08-12T00:35:36;101054.84;;;14.99;100.00
76124;BME280;65173;48.066;20.976;2023-08-12T00:38:39;101059.75;;;14.97;100.00
76124;BME280;65173;48.066;20.976;2023-08-12T00:41:42;101058.34;;;14.91;100.00
76124;BME280;65173;48.066;20.976;2023-08-12T00:44:44;101059.00;;;14.88;100.00
76124;BME280;65173;48.066;20.976;2023-08-12T00:47:46;101048.44;;;14.83;100.00
76124;BME280;65173;48.066;20.976;2023-08-12T00:50:49;101048.16;;;14.76;100.00
76124;BME280;65173;48.066;20.976;2023-08-12T00:53:52;101049.25;;;14.75;100.00
76124;BME280;65173;48.066;20.976;2023-08-12T00:56:55;101052.41;;;14.77;100.00
76124;BME280;65173;48.066;20.976;2023-08-12T00:59:58;101050.38;;;14.74;100.00
76124;BME280;65173;48.066;20.976;2023-08-12T01:03:04;101043.09;;;14.74;100.00
76124;BME280;65173;48.066;20.976;2023-08-12T01:06:08;101046.94;;;14.56;100.00
76124;BME280;65173;48.066;20.976;2023-08-12T01:09:10;101042.84;;;14.67;100.00
76124;BME280;65173;48.066;20.976;2023-08-12T01:12:18;101047.25;;;14.63;100.00
76124;BME280;65173;48.066;20.976;2023-08-12T01:15:24;101040.78;;;14.64;100.00
76124;BME280;65173;48.066;20.976;2023-08-12T01:18:27;101044.56;;;14.63;100.00
76124;BME280;65173;48.066;20.976;2023-08-12T01:21:31;101050.25;;;14.62;100.00
76124;BME280;65173;48.066;20.976;2023-08-12T01:24:42;101047.47;;;14.49;100.00
76124;BME280;65173;48.066;20.976;2023-08-12T01:27:45;101052.84;;;14.49;100.00
76124;BME280;65173;48.066;20.976;2023-08-12T01:31:18;101045.88;;;14.48;100.00
76124;BME280;65173;48.066;20.976;2023-08-12T01:34:39;101043.81;;;14.37;100.00
76124;BME280;65173;48.066;20.976;2023-08-12T01:37:45;101048.25;;;14.41;100.00
76124;BME280;65173;48.066;20.976;2023-08-12T01:40:48;101038.13;;;14.38;100.00
76124;BME280;65173;48.066;20.976;2023-08-12T01:43:51;101049.97;;;14.37;100.00
76124;BME280;65173;48.066;20.976;2023-08-12T01:46:53;101046.81;;;14.35;100.00
76124;BME280;65173;48.066;20.976;2023-08-12T01:49:56;101058.22;;;14.15;100.00
76124;BME280;65173;48.066;20.976;2023-08-12T01:52:58;101059.19;;;14.10;100.00
76124;BME280;65173;48.066;20.976;2023-08-12T01:56:01;101051.91;;;14.11;100.00
76124;BME280;65173;48.066;20.976;2023-08-12T01:59:03;101053.34;;;14.08;100.00
76124;BME280;65173;48.066;20.976;2023-08-12T02:02:06;101056.03;;;14.08;100.00
76124;BME280;65173;48.066;20.976;2023-08-12T02:05:08;101060.75;;;14.03;100.00
76124;BME280;65173;48.066;20.976;2023-08-12T02:08:11;101050.34;;;14.01;100.00
76124;BME280;65173;48.066;20.976;2023-08-12T02:11:13;101057.28;;;13.94;100.00
76124;BME280;65173;48.066;20.976;2023-08-12T02:14:16;101054.13;;;14.00;100.00
76124;BME280;65173;48.066;20.976;2023-08-12T02:17:18;101057.28;;;13.94;100.00
76124;BME280;65173;48.066;20.976;2023-08-12T02:20:21;101053.34;;;14.00;100.00
76124;BME280;65173;48.066;20.976;2023-08-12T02:23:23;101062.66;;;13.94;100.00
76124;BME280;65173;48.066;20.976;2023-08-12T02:26:27;101059.03;;;13.89;100.00
76124;BME280;65173;48.066;20.976;2023-08-12T02:29:29;101058.72;;;13.91;100.00
76124;BME280;65173;48.066;20.976;2023-08-12T02:32:32;101055.22;;;13.82;100.00
76124;BME280;65173;48.066;20.976;2023-08-12T02:35:34;101049.84;;;13.47;100.00
76124;BME280;65173;48.066;20.976;2023-08-12T02:38:38;101052.41;;;13.70;100.00
76124;BME280;65173;48.066;20.976;2023-08-12T02:41:40;101050.19;;;13.63;100.00
76124;BME280;65173;48.066;20.976;2023-08-12T02:44:43;101055.72;;;13.58;100.00
76124;BME280;65173;48.066;20.976;2023-08-12T02:47:45;101049.56;;;13.58;100.00
76124;BME280;65173;48.066;20.976;2023-08-12T02:50:48;101062.34;;;13.61;100.00
76124;BME280;65173;48.066;20.976;2023-08-12T02:53:50;101060.84;;;13.29;100.00
76124;BME280;65173;48.066;20.976;2023-08-12T02:56:53;101064.69;;;13.05;100.00
76124;BME280;65173;48.066;20.976;2023-08-12T02:59:55;101062.66;;;13.11;100.00
76124;BME280;65173;48.066;20.976;2023-08-12T03:02:58;101059.72;;;13.21;100.00
76124;BME280;65173;48.066;20.976;2023-08-12T03:06:01;101058.16;;;13.29;100.00
76124;BME280;65173;48.066;20.976;2023-08-12T03:09:05;101058.63;;;13.22;100.00
76124;BME280;65173;48.066;20.976;2023-08-12T03:12:07;101069.16;;;13.18;100.00
76124;BME280;65173;48.066;20.976;2023-08-12T03:15:10;101063.03;;;13.27;100.00
76124;BME280;65173;48.066;20.976;2023-08-12T03:18:13;101065.25;;;13.25;100.00
76124;BME280;65173;48.066;20.976;2023-08-12T03:21:15;101058.75;;;13.17;100.00
76124;BME280;65173;48.066;20.976;2023-08-12T03:24:18;101067.75;;;13.21;100.00
76124;BME280;65173;48.066;20.976;2023-08-12T03:27:22;101065.72;;;13.27;100.00
76124;BME280;65173;48.066;20.976;2023-08-12T03:30:26;101068.25;;;13.23;100.00
76124;BME280;65173;48.066;20.976;2023-08-12T03:33:29;101072.03;;;13.31;100.00
76124;BME280;65173;48.066;20.976;2023-08-12T03:36:32;101076.59;;;13.30;100.00
76124;BME280;65173;48.066;20.976;2023-08-12T03:39:34;101075.78;;;13.21;100.00
76124;BME280;65173;48.066;20.976;2023-08-12T03:42:37;101078.47;;;13.30;100.00
76124;BME280;65173;48.066;20.976;2023-08-12T03:45:40;101082.88;;;13.26;100.00
76124;BME280;65173;48.066;20.976;2023-08-12T03:48:44;101082.56;;;13.18;100.00
76124;BME280;65173;48.066;20.976;2023-08-12T03:51:47;101085.13;;;13.01;100.00
76124;BME280;65173;48.066;20.976;2023-08-12T03:54:49;101089.56;;;13.06;100.00
76124;BME280;65173;48.066;20.976;2023-08-12T03:57:52;101080.41;;;12.98;100.00
76124;BME280;65173;48.066;20.976;2023-08-12T04:00:55;101085.09;;;13.24;100.00
76124;BME280;65173;48.066;20.976;2023-08-12T04:03:58;101079.38;;;13.16;100.00
76124;BME280;65173;48.066;20.976;2023-08-12T04:07:00;101094.41;;;13.35;100.00
76124;BME280;65173;48.066;20.976;2023-08-12T04:10:03;101092.81;;;13.34;100.00
76124;BME280;65173;48.066;20.976;2023-08-12T04:13:05;101092.50;;;13.35;100.00
76124;BME280;65173;48.066;20.976;2023-08-12T04:16:08;101090.03;;;13.56;100.00
76124;BME280;65173;48.066;20.976;2023-08-12T04:19:11;101101.53;;;13.48;100.00
76124;BME280;65173;48.066;20.976;2023-08-12T04:22:13;101102.13;;;13.36;100.00
76124;BME280;65173;48.066;20.976;2023-08-12T04:25:16;101096.63;;;13.50;100.00
76124;BME280;65173;48.066;20.976;2023-08-12T04:28:18;101105.13;;;13.35;100.00
76124;BME280;65173;48.066;20.976;2023-08-12T04:31:23;101110.47;;;13.35;100.00
76124;BME280;65173;48.066;20.976;2023-08-12T04:34:26;101117.00;;;13.60;100.00
76124;BME280;65173;48.066;20.976;2023-08-12T04:37:28;101105.22;;;13.78;100.00
76124;BME280;65173;48.066;20.976;2023-08-12T04:40:32;101115.91;;;13.61;100.00
76124;BME280;65173;48.066;20.976;2023-08-12T04:43:34;101118.09;;;13.59;100.00
76124;BME280;65173;48.066;20.976;2023-08-12T04:46:38;101119.53;;;13.73;100.00
76124;BME280;65173;48.066;20.976;2023-08-12T04:49:41;101120.34;;;13.74;100.00
76124;BME280;65173;48.066;20.976;2023-08-12T04:52:43;101121.13;;;13.74;100.00
76124;BME280;65173;48.066;20.976;2023-08-12T04:55:50;101127.44;;;13.87;100.00
76124;BME280;65173;48.066;20.976;2023-08-12T04:58:53;101129.63;;;13.85;100.00
76124;BME280;65173;48.066;20.976;2023-08-12T05:01:55;101127.59;;;13.90;100.00
76124;BME280;65173;48.066;20.976;2023-08-12T05:05:08;101132.50;;;14.06;100.00
76124;BME280;65173;48.066;20.976;2023-08-12T05:08:11;101132.19;;;14.07;100.00
76124;BME280;65173;48.066;20.976;2023-08-12T05:11:14;101130.91;;;14.22;100.00
76124;BME280;65173;48.066;20.976;2023-08-12T05:14:17;101132.16;;;14.33;100.00
76124;BME280;65173;48.066;20.976;2023-08-12T05:17:20;101139.44;;;14.33;100.00
76124;BME280;65173;48.066;20.976;2023-08-12T05:20:23;101135.47;;;14.39;100.00
76124;BME280;65173;48.066;20.976;2023-08-12T05:23:25;101134.69;;;14.64;100.00
76124;BME280;65173;48.066;20.976;2023-08-12T05:26:29;101131.81;;;14.78;100.00
76124;BME280;65173;48.066;20.976;2023-08-12T05:29:31;101141.41;;;14.96;100.00
76124;BME280;65173;48.066;20.976;2023-08-12T05:32:34;101136.66;;;14.93;100.00
76124;BME280;65173;48.066;20.976;2023-08-12T05:35:36;101136.31;;;15.03;100.00
76124;BME280;65173;48.066;20.976;2023-08-12T05:38:38;101141.97;;;15.10;100.00
76124;BME280;65173;48.066;20.976;2023-08-12T05:41:41;101138.56;;;15.31;100.00
76124;BME280;65173;48.066;20.976;2023-08-12T05:44:44;101145.59;;;15.52;100.00
76124;BME280;65173;48.066;20.976;2023-08-12T05:47:46;101140.16;;;15.61;100.00
76124;BME280;65173;48.066;20.976;2023-08-12T05:50:49;101146.56;;;15.77;100.00
76124;BME280;65173;48.066;20.976;2023-08-12T05:53:51;101144.28;;;15.88;100.00
76124;BME280;65173;48.066;20.976;2023-08-12T05:56:54;101143.09;;;15.97;100.00
76124;BME280;65173;48.066;20.976;2023-08-12T05:59:56;101147.81;;;16.21;100.00
76124;BME280;65173;48.066;20.976;2023-08-12T06:02:58;101149.56;;;16.38;100.00
76124;BME280;65173;48.066;20.976;2023-08-12T06:06:01;101148.44;;;16.60;100.00
76124;BME280;65173;48.066;20.976;2023-08-12T06:09:04;101153.13;;;16.84;100.00
76124;BME280;65173;48.066;20.976;2023-08-12T06:12:07;101141.72;;;17.23;100.00
76124;BME280;65173;48.066;20.976;2023-08-12T06:15:09;101149.25;;;17.54;100.00
76124;BME280;65173;48.066;20.976;2023-08-12T06:18:12;101146.09;;;17.77;100.00
76124;BME280;65173;48.066;20.976;2023-08-12T06:21:14;101147.78;;;18.21;100.00
76124;BME280;65173;48.066;20.976;2023-08-12T06:24:17;101146.63;;;18.50;100.00
76124;BME280;65173;48.066;20.976;2023-08-12T06:27:19;101142.34;;;18.61;100.00
76124;BME280;65173;48.066;20.976;2023-08-12T06:30:23;101146.31;;;19.11;100.00
76124;BME280;65173;48.066;20.976;2023-08-12T06:33:25;101139.78;;;19.79;100.00
76124;BME280;65173;48.066;20.976;2023-08-12T06:36:28;101132.47;;;19.98;99.02
76124;BME280;65173;48.066;20.976;2023-08-12T06:39:30;101137.00;;;20.33;96.69
76124;BME280;65173;48.066;20.976;2023-08-12T06:42:33;101137.19;;;20.40;93.56
76124;BME280;65173;48.066;20.976;2023-08-12T06:45:35;101130.06;;;21.20;94.79
76124;BME280;65173;48.066;20.976;2023-08-12T06:48:38;101136.25;;;21.73;86.67
76124;BME280;65173;48.066;20.976;2023-08-12T06:51:40;101131.78;;;21.84;84.14
76124;BME280;65173;48.066;20.976;2023-08-12T06:54:43;101135.03;;;22.27;81.87
76124;BME280;65173;48.066;20.976;2023-08-12T06:57:45;101136.16;;;22.26;81.14
76124;BME280;65173;48.066;20.976;2023-08-12T07:00:47;101128.84;;;22.67;79.29
76124;BME280;65173;48.066;20.976;2023-08-12T07:03:50;101120.13;;;22.88;77.34
76124;BME280;65173;48.066;20.976;2023-08-12T07:06:52;101127.13;;;23.40;77.10
76124;BME280;65173;48.066;20.976;2023-08-12T07:09:55;101127.13;;;23.40;73.50
76124;BME280;65173;48.066;20.976;2023-08-12T07:12:57;101123.31;;;23.51;67.63
76124;BME280;65173;48.066;20.976;2023-08-12T07:16:00;101111.63;;;24.38;66.56
76124;BME280;65173;48.066;20.976;2023-08-12T07:19:03;101114.81;;;24.86;67.40
76124;BME280;65173;48.066;20.976;2023-08-12T07:22:05;101115.22;;;25.16;63.36
76124;BME280;65173;48.066;20.976;2023-08-12T07:25:08;101114.00;;;24.92;67.54
76124;BME280;65173;48.066;20.976;2023-08-12T07:28:11;101107.81;;;25.17;62.28
76124;BME280;65173;48.066;20.976;2023-08-12T07:31:13;101110.16;;;25.01;58.05
76124;BME280;65173;48.066;20.976;2023-08-12T07:34:16;101110.66;;;26.08;59.95
76124;BME280;65173;48.066;20.976;2023-08-12T07:37:18;101116.84;;;26.19;60.15
76124;BME280;65173;48.066;20.976;2023-08-12T07:40:20;101115.72;;;26.13;58.62
76124;BME280;65173;48.066;20.976;2023-08-12T07:43:23;101102.28;;;26.43;58.13
76124;BME280;65173;48.066;20.976;2023-08-12T07:46:25;101103.34;;;26.56;57.84
76124;BME280;65173;48.066;20.976;2023-08-12T07:49:28;101103.44;;;26.98;55.85
76124;BME280;65173;48.066;20.976;2023-08-12T07:52:30;101104.22;;;26.98;54.71
76124;BME280;65173;48.066;20.976;2023-08-12T07:55:34;101101.03;;;26.55;54.90
76124;BME280;65173;48.066;20.976;2023-08-12T07:58:37;101108.91;;;26.98;57.40
76124;BME280;65173;48.066;20.976;2023-08-12T08:01:39;101106.59;;;26.92;52.93
76124;BME280;65173;48.066;20.976;2023-08-12T08:04:41;101101.41;;;27.05;52.75
76124;BME280;65173;48.066;20.976;2023-08-12T08:07:44;101101.84;;;27.04;58.30
76124;BME280;65173;48.066;20.976;2023-08-12T08:10:47;101097.47;;;27.47;52.22
76124;BME280;65173;48.066;20.976;2023-08-12T08:13:49;101096.69;;;27.47;50.94
76124;BME280;65173;48.066;20.976;2023-08-12T08:16:51;101094.50;;;27.69;48.61
76124;BME280;65173;48.066;20.976;2023-08-12T08:19:54;101099.25;;;27.95;49.49
76124;BME280;65173;48.066;20.976;2023-08-12T08:22:57;101100.47;;;27.60;47.16
76124;BME280;65173;48.066;20.976;2023-08-12T08:25:59;101095.03;;;28.71;45.34
76124;BME280;65173;48.066;20.976;2023-08-12T08:29:02;101097.66;;;28.78;42.43
76124;BME280;65173;48.066;20.976;2023-08-12T08:32:05;101094.59;;;28.99;40.92
76124;BME280;65173;48.066;20.976;2023-08-12T08:35:08;101091.44;;;29.21;41.47
76124;BME280;65173;48.066;20.976;2023-08-12T08:38:10;101096.00;;;29.08;38.98
76124;BME280;65173;48.066;20.976;2023-08-12T08:41:13;101094.53;;;29.23;38.79
76124;BME280;65173;48.066;20.976;2023-08-12T08:44:21;101093.47;;;29.60;36.96
76124;BME280;65173;48.066;20.976;2023-08-12T08:47:26;101104.16;;;29.74;33.84
76124;BME280;65173;48.066;20.976;2023-08-12T08:50:30;101090.56;;;30.07;37.23
76124;BME280;65173;48.066;20.976;2023-08-12T08:53:37;101081.97;;;29.85;34.63
76124;BME280;65173;48.066;20.976;2023-08-12T08:56:41;101085.75;;;29.91;35.44
76124;BME280;65173;48.066;20.976;2023-08-12T08:59:52;101081.84;;;29.09;36.39
76124;BME280;65173;48.066;20.976;2023-08-12T09:02:57;101075.59;;;30.08;35.08
76124;BME280;65173;48.066;20.976;2023-08-12T09:06:00;101078.19;;;30.96;35.84
76124;BME280;65173;48.066;20.976;2023-08-12T09:09:05;101059.28;;;30.65;35.01
76124;BME280;65173;48.066;20.976;2023-08-12T09:12:13;101065.63;;;30.14;33.77
76124;BME280;65173;48.066;20.976;2023-08-12T09:15:16;101061.38;;;30.45;35.07
76124;BME280;65173;48.066;20.976;2023-08-12T09:18:19;101064.22;;;29.69;34.86
76124;BME280;65173;48.066;20.976;2023-08-12T09:21:26;101059.44;;;30.10;32.10
76124;BME280;65173;48.066;20.976;2023-08-12T09:24:29;101060.91;;;30.47;34.28
76124;BME280;65173;48.066;20.976;2023-08-12T09:27:32;101063.59;;;30.66;32.21
76124;BME280;65173;48.066;20.976;2023-08-12T09:30:34;101054.44;;;31.31;30.05
76124;BME280;65173;48.066;20.976;2023-08-12T09:33:40;101059.81;;;30.44;29.49
76124;BME280;65173;48.066;20.976;2023-08-12T09:36:43;101050.56;;;31.16;33.26
76124;BME280;65173;48.066;20.976;2023-08-12T09:39:47;101044.72;;;30.97;30.28
76124;BME280;65173;48.066;20.976;2023-08-12T09:42:50;101043.38;;;31.60;28.33
76124;BME280;65173;48.066;20.976;2023-08-12T09:45:56;101030.84;;;30.56;29.83
76124;BME280;65173;48.066;20.976;2023-08-12T09:49:00;101031.59;;;31.01;26.29
76124;BME280;65173;48.066;20.976;2023-08-12T09:52:03;101028.59;;;30.02;26.86
76124;BME280;65173;48.066;20.976;2023-08-12T09:55:07;101033.13;;;31.60;28.51
76124;BME280;65173;48.066;20.976;2023-08-12T09:58:11;101023.56;;;32.28;29.32
76124;BME280;65173;48.066;20.976;2023-08-12T10:01:18;101019.47;;;31.95;31.16
76124;BME280;65173;48.066;20.976;2023-08-12T10:04:28;101012.53;;;32.03;31.14
76124;BME280;65173;48.066;20.976;2023-08-12T10:07:32;101008.56;;;32.76;30.88
76124;BME280;65173;48.066;20.976;2023-08-12T10:10:35;101009.59;;;33.14;30.64
76124;BME280;65173;48.066;20.976;2023-08-12T10:13:39;101010.50;;;33.32;30.11
76124;BME280;65173;48.066;20.976;2023-08-12T10:16:46;101008.47;;;33.55;27.58
76124;BME280;65173;48.066;20.976;2023-08-12T10:19:54;101006.13;;;32.19;28.07
76124;BME280;65173;48.066;20.976;2023-08-12T10:22:59;101012.59;;;32.50;28.35
76124;BME280;65173;48.066;20.976;2023-08-12T10:26:05;101006.47;;;31.16;27.45
76124;BME280;65173;48.066;20.976;2023-08-12T10:29:07;101002.22;;;31.40;30.63
76124;BME280;65173;48.066;20.976;2023-08-12T10:32:10;101003.84;;;31.25;29.92
76124;BME280;65173;48.066;20.976;2023-08-12T10:35:13;100995.50;;;32.42;28.12
76124;BME280;65173;48.066;20.976;2023-08-12T10:38:18;100994.38;;;32.53;30.22
76124;BME280;65173;48.066;20.976;2023-08-12T10:41:25;100992.00;;;32.64;28.96
76124;BME280;65173;48.066;20.976;2023-08-12T10:44:57;100986.16;;;31.89;29.30
76124;BME280;65173;48.066;20.976;2023-08-12T10:48:23;100976.50;;;32.44;28.75
76124;BME280;65173;48.066;20.976;2023-08-12T10:54:45;100977.25;;;33.45;30.40
76124;BME280;65173;48.066;20.976;2023-08-12T10:57:49;100981.56;;;33.46;29.81
76124;BME280;65173;48.066;20.976;2023-08-12T11:00:56;100976.25;;;32.04;31.26
76124;BME280;65173;48.066;20.976;2023-08-12T11:03:58;100976.41;;;33.26;28.85
76124;BME280;65173;48.066;20.976;2023-08-12T11:10:37;100967.50;;;31.55;30.06
76124;BME280;65173;48.066;20.976;2023-08-12T11:13:58;100948.94;;;32.32;29.22
76124;BME280;65173;48.066;20.976;2023-08-12T11:17:13;100958.78;;;32.07;30.88
76124;BME280;65173;48.066;20.976;2023-08-12T11:20:16;100951.16;;;32.93;30.05
76124;BME280;65173;48.066;20.976;2023-08-12T11:23:19;100941.25;;;33.05;32.12
76124;BME280;65173;48.066;20.976;2023-08-12T11:26:25;100941.84;;;32.65;31.78
76124;BME280;65173;48.066;20.976;2023-08-12T11:29:28;100929.28;;;33.08;28.78
76124;BME280;65173;48.066;20.976;2023-08-12T11:32:31;100932.06;;;32.17;30.50
76124;BME280;65173;48.066;20.976;2023-08-12T11:35:34;100933.94;;;32.89;27.56
76124;BME280;65173;48.066;20.976;2023-08-12T11:38:37;100926.19;;;32.40;29.18
76124;BME280;65173;48.066;20.976;2023-08-12T11:41:40;100922.75;;;32.71;28.01
76124;BME280;65173;48.066;20.976;2023-08-12T11:44:42;100922.91;;;32.33;28.83
76124;BME280;65173;48.066;20.976;2023-08-12T11:47:45;100924.84;;;31.98;30.14
76124;BME280;65173;48.066;20.976;2023-08-12T11:50:55;100917.44;;;32.20;30.25
76124;BME280;65173;48.066;20.976;2023-08-12T11:53:58;100923.25;;;33.00;29.61
76124;BME280;65173;48.066;20.976;2023-08-12T11:57:01;100923.97;;;33.44;28.87
76124;BME280;65173;48.066;20.976;2023-08-12T12:00:08;100920.25;;;33.17;29.07
76124;BME280;65173;48.066;20.976;2023-08-12T12:03:20;100907.31;;;33.66;27.46
76124;BME280;65173;48.066;20.976;2023-08-12T12:06:33;100907.13;;;33.70;29.13
76124;BME280;65173;48.066;20.976;2023-08-12T12:09:43;100904.44;;;33.39;27.06
76124;BME280;65173;48.066;20.976;2023-08-12T12:12:45;100911.44;;;33.71;28.39
76124;BME280;65173;48.066;20.976;2023-08-12T12:15:48;100909.19;;;33.78;28.84
76124;BME280;65173;48.066;20.976;2023-08-12T12:18:57;100908.31;;;34.00;26.24
76124;BME280;65173;48.066;20.976;2023-08-12T12:22:02;100898.63;;;34.04;27.75
76124;BME280;65173;48.066;20.976;2023-08-12T12:25:07;100893.38;;;33.79;29.21
76124;BME280;65173;48.066;20.976;2023-08-12T12:28:10;100896.91;;;33.89;28.38
76124;BME280;65173;48.066;20.976;2023-08-12T12:31:13;100888.16;;;33.32;27.44
76124;BME280;65173;48.066;20.976;2023-08-12T12:34:15;100881.13;;;32.87;26.66
76124;BME280;65173;48.066;20.976;2023-08-12T12:37:19;100877.00;;;32.48;28.37
76124;BME280;65173;48.066;20.976;2023-08-12T12:40:22;100881.09;;;33.09;30.12
76124;BME280;65173;48.066;20.976;2023-08-12T12:43:24;100871.19;;;32.90;28.43
76124;BME280;65173;48.066;20.976;2023-08-12T12:46:27;100877.91;;;33.20;27.13
76124;BME280;65173;48.066;20.976;2023-08-12T12:49:29;100880.69;;;32.89;29.08
76124;BME280;65173;48.066;20.976;2023-08-12T12:52:32;100880.59;;;33.01;29.46
76124;BME280;65173;48.066;20.976;2023-08-12T12:55:34;100876.16;;;32.73;29.00
76124;BME280;65173;48.066;20.976;2023-08-12T12:58:37;100870.66;;;32.04;32.19
76124;BME280;65173;48.066;20.976;2023-08-12T13:01:40;100862.41;;;32.04;31.79
76124;BME280;65173;48.066;20.976;2023-08-12T13:04:43;100862.56;;;32.44;32.45
76124;BME280;65173;48.066;20.976;2023-08-12T13:07:46;100858.41;;;32.39;30.96
76124;BME280;65173;48.066;20.976;2023-08-12T13:10:49;100851.59;;;32.31;32.87
76124;BME280;65173;48.066;20.976;2023-08-12T13:13:52;100865.16;;;32.60;32.62
76124;BME280;65173;48.066;20.976;2023-08-12T13:16:56;100859.22;;;30.91;32.68
76124;BME280;65173;48.066;20.976;2023-08-12T13:19:58;100847.59;;;31.13;32.50
76124;BME280;65173;48.066;20.976;2023-08-12T13:23:01;100851.25;;;30.68;33.64
76124;BME280;65173;48.066;20.976;2023-08-12T13:26:03;100850.09;;;31.07;32.39
76124;BME280;65173;48.066;20.976;2023-08-12T13:29:06;100840.72;;;30.50;33.08
76124;BME280;65173;48.066;20.976;2023-08-12T13:32:09;100838.66;;;31.08;35.77
76124;BME280;65173;48.066;20.976;2023-08-12T13:35:11;100834.16;;;31.65;33.87
76124;BME280;65173;48.066;20.976;2023-08-12T13:38:13;100826.19;;;31.55;32.78
76124;BME280;65173;48.066;20.976;2023-08-12T13:41:16;100829.25;;;31.57;31.88
76124;BME280;65173;48.066;20.976;2023-08-12T13:44:18;100835.09;;;31.71;35.54
76124;BME280;65173;48.066;20.976;2023-08-12T13:47:21;100824.47;;;31.95;35.09
76124;BME280;65173;48.066;20.976;2023-08-12T13:50:23;100817.44;;;32.16;37.14
76124;BME280;65173;48.066;20.976;2023-08-12T13:53:26;100822.38;;;31.27;36.04
76124;BME280;65173;48.066;20.976;2023-08-12T13:56:28;100821.16;;;31.15;33.20
76124;BME280;65173;48.066;20.976;2023-08-12T13:59:33;100811.59;;;29.46;34.63
76124;BME280;65173;48.066;20.976;2023-08-12T14:02:36;100816.16;;;30.14;36.78
76124;BME280;65173;48.066;20.976;2023-08-12T14:05:39;100804.44;;;30.55;34.54
76124;BME280;65173;48.066;20.976;2023-08-12T14:08:41;100806.44;;;30.55;36.39
76124;BME280;65173;48.066;20.976;2023-08-12T14:11:43;100800.84;;;30.71;35.09
76124;BME280;65173;48.066;20.976;2023-08-12T14:14:46;100810.88;;;30.49;37.29
76124;BME280;65173;48.066;20.976;2023-08-12T14:17:48;100802.38;;;30.85;35.88
76124;BME280;65173;48.066;20.976;2023-08-12T14:20:51;100801.69;;;30.55;36.06
76124;BME280;65173;48.066;20.976;2023-08-12T14:23:53;100808.59;;;30.18;35.12
76124;BME280;65173;48.066;20.976;2023-08-12T14:26:56;100810.13;;;30.19;35.76
76124;BME280;65173;48.066;20.976;2023-08-12T14:29:58;100799.53;;;30.47;35.25
76124;BME280;65173;48.066;20.976;2023-08-12T14:33:01;100801.88;;;30.19;36.46
76124;BME280;65173;48.066;20.976;2023-08-12T14:36:04;100796.03;;;29.72;36.05
76124;BME280;65173;48.066;20.976;2023-08-12T14:39:06;100795.03;;;29.95;37.97
76124;BME280;65173;48.066;20.976;2023-08-12T14:42:09;100799.16;;;30.32;36.38
76124;BME280;65173;48.066;20.976;2023-08-12T14:45:12;100797.78;;;29.95;36.92
76124;BME280;65173;48.066;20.976;2023-08-12T14:48:15;100792.97;;;29.70;36.78
76124;BME280;65173;48.066;20.976;2023-08-12T14:51:19;100791.19;;;30.09;39.58
76124;BME280;65173;48.066;20.976;2023-08-12T14:54:21;100789.53;;;29.50;37.28
76124;BME280;65173;48.066;20.976;2023-08-12T14:57:24;100789.09;;;29.51;38.65
76124;BME280;65173;48.066;20.976;2023-08-12T15:00:26;100784.19;;;29.26;39.55
76124;BME280;65173;48.066;20.976;2023-08-12T15:03:28;100776.56;;;29.34;38.29
76124;BME280;65173;48.066;20.976;2023-08-12T15:06:31;100774.81;;;29.24;37.35
76124;BME280;65173;48.066;20.976;2023-08-12T15:09:33;100784.06;;;28.97;39.66
76124;BME280;65173;48.066;20.976;2023-08-12T15:12:36;100778.22;;;28.95;42.94
76124;BME280;65173;48.066;20.976;2023-08-12T15:15:38;100766.22;;;28.50;40.66
76124;BME280;65173;48.066;20.976;2023-08-12T15:18:41;100764.25;;;28.70;40.39
76124;BME280;65173;48.066;20.976;2023-08-12T15:21:44;100775.13;;;28.38;40.55
76124;BME280;65173;48.066;20.976;2023-08-12T15:24:47;100763.44;;;28.53;40.72
76124;BME280;65173;48.066;20.976;2023-08-12T15:27:49;100766.03;;;28.41;41.80
76124;BME280;65173;48.066;20.976;2023-08-12T15:30:51;100766.75;;;28.45;39.23
76124;BME280;65173;48.066;20.976;2023-08-12T15:33:54;100759.72;;;28.44;42.64
76124;BME280;65173;48.066;20.976;2023-08-12T15:36:57;100757.31;;;28.06;42.38
76124;BME280;65173;48.066;20.976;2023-08-12T15:39:59;100754.56;;;28.06;38.71
76124;BME280;65173;48.066;20.976;2023-08-12T15:43:02;100755.88;;;27.98;39.82
76124;BME280;65173;48.066;20.976;2023-08-12T15:46:04;100749.88;;;28.26;40.75
76124;BME280;65173;48.066;20.976;2023-08-12T15:49:07;100758.31;;;28.36;38.31